Portage, MI (49081)

12:43 AM EDT on October 01, 2014 (GMT -0400)
Hilton Insurance Agency | Change Station
CLOSE
Current Station
Personal Weather Station
Location: Portage, MI
Elevation: 850 ft
Nearby Weather Stations

Elev 850 ft 42.20 °N, 85.59 °W | Updated 1 minute ago

Overcast
Overcast
56.8 °F
Feels Like 56.8 °F
N
0.0
Wind Variable Wind from North
Gusts 0.0 mph

Today
High -- | Low -- °F
--% Chance of Precip.
Yesterday
High -- | Low -- °F
Precip. -- in
7:39 AM 7:23 PM
Waxing Crescent, 43% visible
Pressure 30.06 in
Visibility 10.0 miles
Clouds Overcast 2200 ft
Dew Point 32 °F
Humidity 71%
Rainfall 0.00 in
Snow Depth Not available.
UV 0 out of 12
Pollen 1.80 out of 12
Ozone Good
PM2.5 Good
Flu Activity Not available.
METAR KAZO 010353Z AUTO 00000KT 10SM OVC022 13/09 A3005 RMK AO2 SLP177 T01280094 TSNO

More Conditions Fewer Conditions

Pressure 30.06 in
Visibility 10.0 miles
Clouds Overcast 2200 ft
Dew Point 32 °F
Humidity 71%
Rainfall 0.00 in
Snow Depth Not available.
UV 0 out of 12
Pollen 1.80 out of 12
Ozone Good
PM2.5 Good
Flu Activity Not available.
METAR KAZO 010353Z AUTO 00000KT 10SM OVC022 13/09 A3005 RMK AO2 SLP177 T01280094 TSNO

More Conditions Fewer Conditions

10-Day Weather Forecast

Almanac

Astronomy

Oct. 01, 2014 Rise Set
Actual Time 7:39 AM EDT 7:23 PM EDT
Civil Twilight 7:11 AM EDT 7:51 PM EDT
Nautical Twilight 6:38 AM EDT 8:24 PM EDT
Astronomical Twilight 6:05 AM EDT 8:56 PM EDT
Moon 2:44 PM EDT No Moon Set
Length of Visible Light 12h 40m
Length of Day
11h 44m
Tomorrow will be 2m 49s shorter.
Waxing Crescent, 43% of the Moon is Illuminated
Today
Waxing Crescent
Oct 1
First Quarter
Oct 8
Full
Oct 15
Last Quarter
Oct 23
New

Today's Extremes

State Highs State Lows

Community

WunderPhotos

Upload Photos

1,757,847 photos uploaded!

Nearby

Air Quality

  Air Quality AQ Index Pollutant
Yesterday Moderate
PM2.5
Yesterday Good
OZONE
Current Good
PM2.5
Current Good
OZONE
Tuesday Good
OZONE
Tuesday Good
PM2.5
Wednesday Good
OZONE
Wednesday Good
PM2.5
Thursday Good
OZONE
Thursday Good
PM2.5
Friday Good
OZONE
Friday Good
PM2.5
Saturday Good
OZONE
Saturday Good
PM2.5

Snow Depth

Station Depth Elevation
No new snow has been reported.

Earthquake Activity

City Distance Mag. Time & Date
No recent earthquake activity has been reported nearby.
Minimum magnitude displayed is 2.5.

Coastal Water Temperatures

Place Temperature
No Stations Reporting

Nearby Weather Stations